createdAt,value
2017-10-17T00:01:19.192Z,11.20
2017-10-17T00:03:46.698Z,11.20
2017-10-17T00:06:14.198Z,11.20
2017-10-17T00:08:41.692Z,11.20
2017-10-17T00:11:10.013Z,11.30
2017-10-17T00:13:37.525Z,11.30
2017-10-17T00:16:05.782Z,11.10
2017-10-17T00:18:33.283Z,11.20
2017-10-17T00:21:00.787Z,11.10
2017-10-17T00:23:28.270Z,11.10
2017-10-17T00:25:55.777Z,11.10
2017-10-17T00:28:23.340Z,11.00
2017-10-17T00:30:50.809Z,11.00
2017-10-17T00:33:20.228Z,10.90
2017-10-17T00:36:02.169Z,10.90
2017-10-17T00:38:29.650Z,10.90
2017-10-17T00:40:57.108Z,10.80
2017-10-17T00:43:25.875Z,10.70
2017-10-17T00:45:53.353Z,10.70
2017-10-17T00:48:23.406Z,10.70
2017-10-17T00:50:50.906Z,10.70
2017-10-17T00:53:19.116Z,10.70
2017-10-17T00:55:46.612Z,10.60
2017-10-17T00:58:29.735Z,10.50
2017-10-17T01:00:57.472Z,10.40
2017-10-17T01:03:25.764Z,10.40
2017-10-17T01:05:53.271Z,10.50
2017-10-17T01:08:20.790Z,10.50
2017-10-17T01:10:48.267Z,10.50
2017-10-17T01:13:16.518Z,10.50
2017-10-17T01:15:43.980Z,10.40
2017-10-17T01:18:11.458Z,10.50
2017-10-17T01:20:47.261Z,10.50
2017-10-17T01:23:40.325Z,10.50
2017-10-17T01:26:09.529Z,10.50
2017-10-17T01:28:37.265Z,10.40
2017-10-17T01:31:04.742Z,10.40
2017-10-17T01:33:32.229Z,10.40
2017-10-17T01:35:59.709Z,10.40
2017-10-17T01:38:28.799Z,10.40
2017-10-17T01:40:56.316Z,10.40
2017-10-17T01:43:25.601Z,10.30
2017-10-17T01:45:53.069Z,10.30
2017-10-17T01:48:30.470Z,10.20
2017-10-17T02:04:17.475Z,9.90
2017-10-17T02:06:44.934Z,9.70
2017-10-17T02:09:12.488Z,9.70
2017-10-17T02:11:40.007Z,9.50
2017-10-17T02:14:07.487Z,9.50
2017-10-17T02:16:35.019Z,9.60
2017-10-17T02:19:23.101Z,9.60
2017-10-17T02:21:54.431Z,9.60
2017-10-17T02:24:24.501Z,9.70
2017-10-17T02:26:52.821Z,9.70
2017-10-17T02:29:23.834Z,9.70
2017-10-17T02:31:51.420Z,9.70
2017-10-17T02:34:19.738Z,9.70
2017-10-17T02:36:48.377Z,9.70
2017-10-17T02:39:15.880Z,9.70
2017-10-17T02:41:43.377Z,9.70
2017-10-17T02:44:10.858Z,9.70
2017-10-17T02:46:39.215Z,9.70
2017-10-17T03:02:38.236Z,9.70
2017-10-17T03:05:08.277Z,9.70
2017-10-17T03:07:35.896Z,9.70
2017-10-17T03:10:03.377Z,9.70
2017-10-17T03:12:31.682Z,9.70
2017-10-17T03:14:59.908Z,9.60
2017-10-17T03:17:27.411Z,9.60
2017-10-17T03:19:54.979Z,9.50
2017-10-17T03:22:23.271Z,9.30
2017-10-17T03:24:55.572Z,9.30
2017-10-17T03:27:23.056Z,9.30
2017-10-17T03:29:50.536Z,9.30
2017-10-17T03:32:18.789Z,9.10
2017-10-17T03:34:57.004Z,9.10
2017-10-17T03:37:30.015Z,9.20
2017-10-17T03:40:03.099Z,9.00
2017-10-17T03:42:30.604Z,9.00
2017-10-17T03:44:58.847Z,9.00
2017-10-17T03:50:23.265Z,9.10
2017-10-17T03:52:50.772Z,9.10
2017-10-17T03:55:18.232Z,9.10
2017-10-17T03:57:47.553Z,9.10
2017-10-17T04:00:16.415Z,9.10
2017-10-17T04:02:44.838Z,9.10
2017-10-17T04:05:18.305Z,9.10
2017-10-17T04:08:01.508Z,9.20
2017-10-17T04:10:43.750Z,9.00
2017-10-17T04:13:43.688Z,9.00
2017-10-17T04:16:15.844Z,9.00
2017-10-17T04:19:02.457Z,8.90
2017-10-17T04:21:34.767Z,8.90
2017-10-17T04:24:07.793Z,8.90
2017-10-17T04:26:35.277Z,8.80
2017-10-17T04:29:09.436Z,8.70
2017-10-17T04:31:46.850Z,8.60
2017-10-17T04:34:30.715Z,8.50
2017-10-17T04:37:01.712Z,8.50
2017-10-17T04:39:29.234Z,8.40
2017-10-17T04:42:12.466Z,8.40
2017-10-17T04:45:03.616Z,8.40
2017-10-17T04:47:34.742Z,8.40
2017-10-17T04:50:12.063Z,8.40
2017-10-17T04:52:43.329Z,8.40
2017-10-17T04:55:10.841Z,8.40
2017-10-17T04:57:39.055Z,8.50
2017-10-17T05:00:08.385Z,8.50
2017-10-17T05:16:22.409Z,8.30
2017-10-17T05:19:16.427Z,8.20
2017-10-17T05:21:43.917Z,8.20
2017-10-17T05:24:39.659Z,8.20
2017-10-17T05:27:14.770Z,8.10
2017-10-17T05:29:42.407Z,8.20
2017-10-17T05:32:09.910Z,8.20
2017-10-17T05:34:37.416Z,8.20
2017-10-17T05:37:13.349Z,8.30
2017-10-17T05:39:40.862Z,8.40
2017-10-17T05:42:08.425Z,8.30
2017-10-17T05:44:45.406Z,8.40
2017-10-17T05:47:17.302Z,8.40
2017-10-17T05:49:52.444Z,8.40
2017-10-17T05:52:20.841Z,8.30
2017-10-17T05:54:48.327Z,8.30
2017-10-17T05:57:15.833Z,8.10
2017-10-17T05:59:43.310Z,8.10
2017-10-17T06:02:10.785Z,8.00
2017-10-17T06:04:38.282Z,7.90
2017-10-17T06:07:06.236Z,8.00
2017-10-17T06:09:33.748Z,8.00
2017-10-17T06:12:01.242Z,8.00
2017-10-17T06:14:28.729Z,8.00
2017-10-17T06:16:56.245Z,8.00
2017-10-17T06:19:23.744Z,8.00
2017-10-17T06:21:51.244Z,8.10
2017-10-17T06:24:18.743Z,8.20
2017-10-17T06:26:47.031Z,8.30
2017-10-17T06:29:14.517Z,8.30
2017-10-17T06:31:42.046Z,8.40
2017-10-17T06:34:09.559Z,8.50
2017-10-17T06:36:38.408Z,8.60
2017-10-17T06:39:06.021Z,8.60
2017-10-17T06:41:33.625Z,8.80
2017-10-17T06:44:01.171Z,8.80
2017-10-17T06:46:29.422Z,9.00
2017-10-17T06:48:56.906Z,9.00
2017-10-17T06:51:25.145Z,9.20
2017-10-17T06:53:52.633Z,9.20
2017-10-17T06:56:20.099Z,9.30
2017-10-17T06:58:47.561Z,9.30
2017-10-17T07:01:15.051Z,9.30
2017-10-17T07:03:42.538Z,9.40
2017-10-17T07:06:10.008Z,9.50
2017-10-17T07:08:37.490Z,9.50
2017-10-17T07:11:05.001Z,9.60
2017-10-17T07:13:32.512Z,9.80
2017-10-17T07:16:00.029Z,9.90
2017-10-17T07:18:27.514Z,10.20
2017-10-17T07:20:54.995Z,10.60
2017-10-17T07:23:22.897Z,11.10
2017-10-17T07:25:50.379Z,11.40
2017-10-17T07:28:17.847Z,11.80
2017-10-17T07:30:45.342Z,12.20
2017-10-17T07:33:12.829Z,12.30
2017-10-17T07:35:40.349Z,14.10
2017-10-17T07:38:07.838Z,12.60
2017-10-17T07:40:35.338Z,12.80
2017-10-17T07:43:02.874Z,12.90
2017-10-17T07:45:30.354Z,12.90
2017-10-17T07:47:57.829Z,13.00
2017-10-17T07:50:25.318Z,13.10
2017-10-17T07:52:53.081Z,13.10
2017-10-17T07:55:20.558Z,13.00
2017-10-17T07:57:48.051Z,13.10
2017-10-17T08:00:15.630Z,13.10
2017-10-17T08:02:43.130Z,13.10
2017-10-17T08:05:10.886Z,13.20
2017-10-17T08:07:38.386Z,13.20
2017-10-17T08:10:05.883Z,13.40
2017-10-17T08:12:33.392Z,13.40
2017-10-17T08:15:00.872Z,13.60
2017-10-17T08:17:28.369Z,13.60
2017-10-17T08:19:55.855Z,13.70
2017-10-17T08:22:23.603Z,13.70
2017-10-17T08:24:51.102Z,13.70
2017-10-17T08:27:18.598Z,13.90
2017-10-17T08:29:46.114Z,14.00
2017-10-17T08:32:13.598Z,14.20
2017-10-17T08:34:41.377Z,14.30
2017-10-17T08:37:08.883Z,14.30
2017-10-17T08:39:36.356Z,14.50
2017-10-17T08:42:03.876Z,14.60
2017-10-17T08:44:31.362Z,14.80
2017-10-17T08:46:58.878Z,15.00
2017-10-17T08:49:26.362Z,15.30
2017-10-17T08:51:54.128Z,15.50
2017-10-17T08:54:21.604Z,15.60
2017-10-17T08:56:49.127Z,15.80
2017-10-17T08:59:16.632Z,16.00
2017-10-17T09:01:44.978Z,16.30
2017-10-17T09:04:12.720Z,16.30
2017-10-17T09:06:40.219Z,16.50
2017-10-17T09:09:08.488Z,16.90
2017-10-17T09:11:36.055Z,16.90
2017-10-17T09:14:04.313Z,17.20
2017-10-17T09:16:31.825Z,17.10
2017-10-17T09:18:59.342Z,17.40
2017-10-17T09:21:27.171Z,17.50
2017-10-17T09:23:54.664Z,17.80
2017-10-17T09:26:22.947Z,18.10
2017-10-17T09:28:50.444Z,18.00
2017-10-17T09:31:17.999Z,18.30
2017-10-17T09:33:45.489Z,18.40
2017-10-17T09:36:12.975Z,18.60
2017-10-17T09:38:40.504Z,18.70
2017-10-17T09:41:08.019Z,18.90
2017-10-17T09:43:35.484Z,19.30
2017-10-17T09:46:03.003Z,19.40
2017-10-17T09:48:30.564Z,19.50
2017-10-17T09:50:58.835Z,19.90
2017-10-17T09:53:27.500Z,20.10
2017-10-17T09:55:54.980Z,20.00
2017-10-17T09:58:22.458Z,20.20
2017-10-17T10:00:50.712Z,20.30
2017-10-17T10:03:18.990Z,20.30
2017-10-17T10:05:46.745Z,20.40
2017-10-17T10:08:14.258Z,20.50
2017-10-17T10:10:41.841Z,20.70
2017-10-17T10:13:10.130Z,21.10
2017-10-17T10:15:37.628Z,21.00
2017-10-17T10:18:05.380Z,21.20
2017-10-17T10:20:33.655Z,21.50
2017-10-17T10:23:01.906Z,21.60
2017-10-17T10:25:29.433Z,21.60
2017-10-17T10:27:56.939Z,21.90
2017-10-17T10:30:24.451Z,22.00
2017-10-17T10:32:51.953Z,22.00
2017-10-17T10:35:20.493Z,21.70
2017-10-17T10:37:47.971Z,21.70
2017-10-17T10:40:15.480Z,22.00
2017-10-17T10:42:43.008Z,22.10
2017-10-17T10:45:11.286Z,22.50
2017-10-17T10:47:39.576Z,22.50
2017-10-17T10:50:07.840Z,22.50
2017-10-17T10:52:35.373Z,22.50
2017-10-17T10:55:02.853Z,22.60
2017-10-17T10:57:31.182Z,22.70
2017-10-17T10:59:58.684Z,22.80
2017-10-17T11:02:27.038Z,22.90
2017-10-17T11:04:54.932Z,22.90
2017-10-17T11:07:22.505Z,22.90
2017-10-17T11:09:50.760Z,23.10
2017-10-17T11:12:19.041Z,23.10
2017-10-17T11:14:47.322Z,23.00
2017-10-17T11:17:15.609Z,23.00
2017-10-17T11:19:43.863Z,23.00
2017-10-17T11:22:12.150Z,23.00
2017-10-17T11:24:40.432Z,23.10
2017-10-17T11:27:08.690Z,23.20
2017-10-17T11:29:36.169Z,23.20
2017-10-17T11:32:04.425Z,23.20
2017-10-17T11:34:31.982Z,23.20
2017-10-17T11:36:59.446Z,23.10
2017-10-17T11:39:26.969Z,23.10
2017-10-17T11:42:06.350Z,23.10
2017-10-17T11:44:34.621Z,23.10
2017-10-17T11:47:02.904Z,23.10
2017-10-17T11:49:30.386Z,23.10
2017-10-17T11:51:58.222Z,23.30
2017-10-17T11:54:25.769Z,23.40
2017-10-17T11:56:54.043Z,23.40
2017-10-17T11:59:21.553Z,23.30
2017-10-17T12:01:49.036Z,23.50
2017-10-17T12:04:16.539Z,23.50
2017-10-17T12:06:44.087Z,23.50
2017-10-17T12:09:11.833Z,23.80
2017-10-17T12:11:39.298Z,23.80
2017-10-17T12:14:06.763Z,23.80
2017-10-17T12:16:34.246Z,23.80
2017-10-17T12:19:01.729Z,23.80
2017-10-17T12:21:29.214Z,23.70
2017-10-17T12:23:56.738Z,23.70
2017-10-17T12:26:24.242Z,23.70
2017-10-17T12:28:51.742Z,23.70
2017-10-17T12:31:19.990Z,23.70
2017-10-17T12:33:47.484Z,23.70
2017-10-17T12:36:15.003Z,23.70
2017-10-17T12:38:43.529Z,23.70
2017-10-17T12:41:10.992Z,23.70
2017-10-17T12:43:38.469Z,23.60
2017-10-17T12:46:05.942Z,23.70
2017-10-17T12:48:33.446Z,23.60
2017-10-17T12:51:00.919Z,23.60
2017-10-17T12:53:28.380Z,23.60
2017-10-17T12:55:56.217Z,23.70
2017-10-17T12:58:23.678Z,23.70
2017-10-17T13:00:51.906Z,23.70
2017-10-17T13:03:19.417Z,23.80
2017-10-17T13:05:46.935Z,23.70
2017-10-17T13:08:14.719Z,23.50
2017-10-17T13:10:42.167Z,23.40
2017-10-17T13:13:09.646Z,23.30
2017-10-17T13:15:37.907Z,23.30
2017-10-17T13:18:06.592Z,23.30
2017-10-17T13:20:34.346Z,23.20
2017-10-17T13:23:01.834Z,23.30
2017-10-17T13:25:30.088Z,23.50
2017-10-17T13:27:57.633Z,23.50
2017-10-17T13:30:25.111Z,23.70
2017-10-17T13:32:52.620Z,23.80
2017-10-17T13:35:20.094Z,23.80
2017-10-17T13:37:47.875Z,23.90
2017-10-17T13:40:15.327Z,24.00
2017-10-17T13:42:42.792Z,24.00
2017-10-17T13:45:10.285Z,24.00
2017-10-17T13:47:37.762Z,24.20
2017-10-17T13:50:05.240Z,24.40
2017-10-17T13:52:32.718Z,24.40
2017-10-17T13:55:00.216Z,24.60
2017-10-17T13:57:27.729Z,24.70
2017-10-17T13:59:55.226Z,24.60
2017-10-17T14:02:22.732Z,24.70
2017-10-17T14:04:50.213Z,24.60
2017-10-17T14:07:18.025Z,24.60
2017-10-17T14:09:45.512Z,24.50
2017-10-17T14:12:13.018Z,24.50
2017-10-17T14:14:40.531Z,24.50
2017-10-17T14:17:08.007Z,24.60
2017-10-17T14:19:35.492Z,24.70
2017-10-17T14:22:03.724Z,24.50
2017-10-17T14:24:31.228Z,24.50
2017-10-17T14:26:58.746Z,24.30
2017-10-17T14:29:26.218Z,24.10
2017-10-17T14:31:53.736Z,23.90
2017-10-17T14:34:21.204Z,23.80
2017-10-17T14:36:48.718Z,23.70
2017-10-17T14:39:16.230Z,23.70
2017-10-17T14:41:43.749Z,23.60
2017-10-17T14:44:11.261Z,23.50
2017-10-17T14:46:38.748Z,23.50
2017-10-17T14:49:06.264Z,23.30
2017-10-17T14:51:33.736Z,23.20
2017-10-17T14:54:01.495Z,23.20
2017-10-17T14:56:28.960Z,23.10
2017-10-17T14:58:56.442Z,23.10
2017-10-17T15:01:24.727Z,22.90
2017-10-17T15:03:52.229Z,22.90
2017-10-17T15:06:19.735Z,22.90
2017-10-17T15:08:47.212Z,22.80
2017-10-17T15:11:17.467Z,22.80
2017-10-17T15:13:49.717Z,22.60
2017-10-17T15:16:17.200Z,22.60
2017-10-17T15:18:44.712Z,22.50
2017-10-17T15:21:12.196Z,22.60
2017-10-17T15:23:39.990Z,22.60
2017-10-17T15:26:07.489Z,22.50
2017-10-17T15:28:34.980Z,22.40
2017-10-17T15:31:02.486Z,22.40
2017-10-17T15:33:30.085Z,22.30
2017-10-17T15:35:58.464Z,22.00
2017-10-17T15:38:25.959Z,22.00
2017-10-17T15:40:53.474Z,21.90
2017-10-17T15:43:20.983Z,21.80
2017-10-17T15:45:48.480Z,21.70
2017-10-17T15:48:15.974Z,21.40
2017-10-17T15:50:43.445Z,21.30
2017-10-17T15:53:10.951Z,21.20
2017-10-17T15:55:38.444Z,21.20
2017-10-17T15:58:05.934Z,21.10
2017-10-17T16:00:33.434Z,21.00
2017-10-17T16:03:00.940Z,21.00
2017-10-17T16:05:28.837Z,20.80
2017-10-17T16:07:56.340Z,20.70
2017-10-17T16:10:23.846Z,20.70
2017-10-17T16:12:52.107Z,20.60
2017-10-17T16:15:19.629Z,20.50
2017-10-17T16:17:47.171Z,20.40
2017-10-17T16:20:14.657Z,20.30
2017-10-17T16:22:42.154Z,20.10
2017-10-17T16:25:10.396Z,19.80
2017-10-17T16:27:37.880Z,19.80
2017-10-17T16:30:06.136Z,19.60
2017-10-17T16:32:33.619Z,19.50
2017-10-17T16:35:01.870Z,19.30
2017-10-17T16:37:29.367Z,19.30
2017-10-17T16:39:56.861Z,19.20
2017-10-17T16:42:24.392Z,19.20
2017-10-17T16:44:51.885Z,19.00
2017-10-17T16:47:19.430Z,18.90
2017-10-17T16:49:46.905Z,18.80
2017-10-17T16:52:14.420Z,18.70
2017-10-17T16:54:42.236Z,18.70
2017-10-17T16:57:09.736Z,18.70
2017-10-17T16:59:37.281Z,18.70
2017-10-17T17:02:04.781Z,18.30
2017-10-17T17:04:32.539Z,18.10
2017-10-17T17:07:01.018Z,17.90
2017-10-17T17:09:28.492Z,17.70
2017-10-17T17:11:56.022Z,17.50
2017-10-17T17:14:23.515Z,17.40
2017-10-17T17:16:51.027Z,17.20
2017-10-17T17:19:18.700Z,17.00
2017-10-17T17:21:46.469Z,16.90
2017-10-17T17:24:13.962Z,16.80
2017-10-17T17:26:41.523Z,16.70
2017-10-17T17:29:09.102Z,16.70
2017-10-17T17:31:37.670Z,16.60
2017-10-17T17:34:05.250Z,16.60
2017-10-17T17:36:32.767Z,16.60
2017-10-17T17:39:00.291Z,16.40
2017-10-17T17:41:28.787Z,16.30
2017-10-17T17:43:56.399Z,16.30
2017-10-17T17:46:24.816Z,16.30
2017-10-17T17:48:53.056Z,16.20
2017-10-17T17:51:20.570Z,16.20
2017-10-17T17:53:48.072Z,16.20
2017-10-17T17:56:15.592Z,16.10
2017-10-17T17:58:46.735Z,15.90
2017-10-17T18:01:14.291Z,15.80
2017-10-17T18:03:41.864Z,15.70
2017-10-17T18:06:09.483Z,15.60
2017-10-17T18:08:38.229Z,15.50
2017-10-17T18:11:05.862Z,15.50
2017-10-17T18:13:33.921Z,15.50
2017-10-17T18:16:01.533Z,15.40
2017-10-17T18:18:29.059Z,15.20
2017-10-17T18:20:56.916Z,15.10
2017-10-17T18:23:24.522Z,15.00
2017-10-17T18:25:52.398Z,14.90
2017-10-17T18:28:19.979Z,14.80
2017-10-17T18:30:47.585Z,14.70
2017-10-17T18:33:15.177Z,14.60
2017-10-17T18:35:42.702Z,14.60
2017-10-17T18:38:10.586Z,14.40
2017-10-17T18:40:38.188Z,14.30
2017-10-17T18:43:05.806Z,14.20
2017-10-17T18:45:33.367Z,14.10
2017-10-17T18:48:00.870Z,14.00
2017-10-17T18:50:28.796Z,14.00
2017-10-17T18:52:56.357Z,13.90
2017-10-17T18:55:24.013Z,13.90
2017-10-17T18:57:51.618Z,13.80
2017-10-17T19:00:19.111Z,13.80
2017-10-17T19:02:47.018Z,11.20
2017-10-17T19:05:15.784Z,13.70
2017-10-17T19:07:43.563Z,13.70
2017-10-17T19:10:11.740Z,13.70
2017-10-17T19:12:39.486Z,13.60
2017-10-17T19:15:07.004Z,13.60
2017-10-17T19:17:34.655Z,13.60
2017-10-17T19:20:02.472Z,13.60
2017-10-17T19:22:30.070Z,13.50
2017-10-17T19:24:57.689Z,14.00
2017-10-17T19:27:25.222Z,13.30
2017-10-17T19:29:52.803Z,13.30
2017-10-17T19:32:20.476Z,13.10
2017-10-17T19:34:47.984Z,13.10
2017-10-17T19:37:15.847Z,13.10
2017-10-17T19:39:43.591Z,13.00
2017-10-17T19:42:11.237Z,12.90
2017-10-17T19:44:38.932Z,12.90
2017-10-17T19:47:07.230Z,12.80
2017-10-17T19:49:36.286Z,12.80
2017-10-17T19:52:03.801Z,12.80
2017-10-17T19:54:32.550Z,12.60
2017-10-17T19:57:00.152Z,12.60
2017-10-17T19:59:27.768Z,12.60
2017-10-17T20:01:55.451Z,12.50
2017-10-17T20:04:23.109Z,12.40
2017-10-17T20:06:50.838Z,12.10
2017-10-17T20:09:18.337Z,12.40
2017-10-17T20:11:47.247Z,12.30
2017-10-17T20:14:14.840Z,12.30
2017-10-17T20:16:42.347Z,12.30
2017-10-17T20:19:09.952Z,12.40
2017-10-17T20:21:37.870Z,12.30
2017-10-17T20:24:05.482Z,13.60
2017-10-17T20:26:33.274Z,12.10
2017-10-17T20:29:00.851Z,12.00
2017-10-17T20:31:28.551Z,12.00
2017-10-17T20:33:56.302Z,12.00
2017-10-17T20:36:24.114Z,12.00
2017-10-17T20:38:51.690Z,11.90
2017-10-17T20:41:19.291Z,11.90
2017-10-17T20:43:46.826Z,11.90
2017-10-17T20:46:14.530Z,11.80
2017-10-17T20:48:42.239Z,11.80
2017-10-17T20:51:09.909Z,11.80
2017-10-17T20:53:37.451Z,13.80
2017-10-17T20:56:04.977Z,11.70
2017-10-17T20:58:32.593Z,11.60
2017-10-17T21:01:00.157Z,11.60
2017-10-17T21:03:27.779Z,11.60
2017-10-17T21:05:56.442Z,15.00
2017-10-17T21:08:24.010Z,11.60
2017-10-17T21:10:52.015Z,11.60
2017-10-17T21:13:20.303Z,11.60
2017-10-17T21:15:48.128Z,11.60
2017-10-17T21:18:16.708Z,11.60
2017-10-17T21:20:44.923Z,11.50
2017-10-17T21:23:13.568Z,11.50
2017-10-17T21:25:41.278Z,11.50
2017-10-17T21:28:08.979Z,11.60
2017-10-17T21:30:36.565Z,11.40
2017-10-17T21:33:05.675Z,11.50
2017-10-17T21:35:33.414Z,11.40
2017-10-17T21:38:01.267Z,11.40
2017-10-17T21:40:28.828Z,11.40
2017-10-17T21:42:56.467Z,11.40
2017-10-17T21:45:23.987Z,11.40
2017-10-17T21:47:51.676Z,11.30
2017-10-17T21:50:19.515Z,11.20
2017-10-17T21:52:47.950Z,11.20
2017-10-17T21:55:15.670Z,11.10
2017-10-17T21:57:44.171Z,11.00
2017-10-17T22:00:11.731Z,10.90
2017-10-17T22:02:39.243Z,10.90
2017-10-17T22:05:06.821Z,10.80
2017-10-17T22:07:34.542Z,10.80
2017-10-17T22:10:02.034Z,10.70
2017-10-17T22:12:29.507Z,10.60
2017-10-17T22:14:56.987Z,10.60
2017-10-17T22:17:24.506Z,10.60
2017-10-17T22:19:52.767Z,10.50
2017-10-17T22:22:20.243Z,10.40
2017-10-17T22:24:47.734Z,10.50
2017-10-17T22:27:15.242Z,10.40
2017-10-17T22:29:42.789Z,10.50
2017-10-17T22:32:10.363Z,10.40
2017-10-17T22:34:37.845Z,10.40
2017-10-17T22:37:05.346Z,10.50
2017-10-17T22:39:32.833Z,10.50
2017-10-17T22:42:00.293Z,10.50
2017-10-17T22:44:28.523Z,10.60
2017-10-17T22:46:56.024Z,10.50
2017-10-17T22:49:23.506Z,10.50
2017-10-17T22:51:50.964Z,10.50
2017-10-17T22:54:18.443Z,10.50
2017-10-17T22:56:45.904Z,10.40
2017-10-17T22:59:13.353Z,10.10
2017-10-17T23:01:40.842Z,9.90
2017-10-17T23:04:08.294Z,9.80
2017-10-17T23:06:35.807Z,9.80
2017-10-17T23:09:03.280Z,9.70
2017-10-17T23:11:30.740Z,9.80
2017-10-17T23:13:58.261Z,9.70
2017-10-17T23:16:25.764Z,9.80
2017-10-17T23:19:05.462Z,9.80
2017-10-17T23:21:32.938Z,9.80
2017-10-17T23:24:00.413Z,9.80
2017-10-17T23:26:27.866Z,9.80
2017-10-17T23:28:55.356Z,9.80
2017-10-17T23:31:22.813Z,9.80
2017-10-17T23:33:50.295Z,9.70
2017-10-17T23:36:17.752Z,9.60
2017-10-17T23:38:45.662Z,9.50
2017-10-17T23:41:13.120Z,9.50
2017-10-17T23:43:40.577Z,9.40
2017-10-17T23:46:08.088Z,9.40
2017-10-17T23:48:35.543Z,9.30
2017-10-17T23:51:02.998Z,9.30
2017-10-17T23:53:30.466Z,9.30
2017-10-17T23:55:58.713Z,9.30
2017-10-17T23:58:26.199Z,9.30
